Time;durP1;ratioP1;P1;durP2;ratioP2;P2;SDS_P1;SDS_P2;PMS_P1;PMS_P2;Temp;Humidity;BMP_temperature;BMP_pressure;BME280_temperature;BME280_humidity;BME280_pressure;Samples;Min_cycle;Max_cycle;Signal;HPM_P1;HPM_P2
2023/08/13 00:00:35;;;;;;;;;;;22.30;56.20;;;;;;4951300;28;88348;-48
2023/08/13 00:03:01;;;;;;;;;;;22.30;56.20;;;;;;4950027;28;87167;-51
2023/08/13 00:05:26;;;;;;;;;;;22.20;56.20;;;;;;4953751;28;88018;-46
2023/08/13 00:07:52;;;;;;;;;;;22.20;56.10;;;;;;4949967;28;88482;-46
2023/08/13 00:10:17;;;;;;;;;;;22.20;56.20;;;;;;4951894;28;87158;-52
2023/08/13 00:12:43;;;;;;;;;;;22.20;56.20;;;;;;4953066;28;87669;-46
2023/08/13 00:15:10;;;;;;;;;;;22.20;56.20;;;;;;4952259;28;88720;-50
2023/08/13 00:17:36;;;;;;;;;;;22.20;56.20;;;;;;4950285;28;87122;-47
2023/08/13 00:20:01;;;;;;;;;;;22.20;56.20;;;;;;4953884;28;87177;-47
2023/08/13 00:22:29;;;;;;;;;;;22.20;56.20;;;;;;4947843;28;86461;-50
2023/08/13 00:24:55;;;;;;;;;;;22.20;56.20;;;;;;4947570;28;87098;-47
2023/08/13 00:27:21;;;;;;;;;;;22.20;56.30;;;;;;4953121;28;88071;-52
2023/08/13 00:29:46;;;;;;;;;;;22.20;56.30;;;;;;4949735;28;88148;-51
2023/08/13 00:32:12;;;;;;;;;;;22.20;56.90;;;;;;4951639;28;88195;-48
2023/08/13 00:34:37;;;;;;;;;;;22.10;56.20;;;;;;4952387;28;87611;-50
2023/08/13 00:37:03;;;;;;;;;;;22.10;56.20;;;;;;4951559;28;87296;-46
2023/08/13 00:39:29;;;;;;;;;;;22.10;56.30;;;;;;4949886;28;87156;-47
2023/08/13 00:41:54;;;;;;;;;;;22.10;56.30;;;;;;4956537;28;87572;-48
2023/08/13 00:44:20;;;;;;;;;;;22.10;56.30;;;;;;4950880;28;87360;-48
2023/08/13 00:46:45;;;;;;;;;;;22.10;56.30;;;;;;4952850;28;87034;-47
2023/08/13 00:49:13;;;;;;;;;;;22.10;56.30;;;;;;4949478;28;87621;-48
2023/08/13 00:51:38;;;;;;;;;;;22.10;56.30;;;;;;4952290;28;87098;-51
2023/08/13 00:54:05;;;;;;;;;;;22.10;56.30;;;;;;4948495;28;88252;-49
2023/08/13 00:56:30;;;;;;;;;;;22.10;56.30;;;;;;4950888;28;87000;-46
2023/08/13 00:58:56;;;;;;;;;;;22.10;56.30;;;;;;4953707;28;87645;-48
2023/08/13 01:01:21;;;;;;;;;;;22.10;56.40;;;;;;4946308;28;88255;-48
2023/08/13 01:03:47;;;;;;;;;;;22.10;56.40;;;;;;4952316;28;87527;-48
2023/08/13 01:06:21;;;;;;;;;;;22.00;56.30;;;;;;4955872;28;88081;-48
2023/08/13 01:08:49;;;;;;;;;;;22.00;56.30;;;;;;4952473;28;87021;-48
2023/08/13 01:11:41;;;;;;;;;;;22.00;56.30;;;;;;4957424;28;87572;-47
2023/08/13 01:14:33;;;;;;;;;;;22.00;56.30;;;;;;4955380;28;88509;-47
2023/08/13 01:16:59;;;;;;;;;;;22.00;56.30;;;;;;4956006;28;87901;-48
2023/08/13 01:19:25;;;;;;;;;;;22.00;56.40;;;;;;4952333;28;88946;-49
2023/08/13 01:21:51;;;;;;;;;;;21.90;56.40;;;;;;4954113;28;88187;-45
2023/08/13 01:24:16;;;;;;;;;;;22.00;57.10;;;;;;4955649;28;87096;-49
2023/08/13 01:27:08;;;;;;;;;;;22.00;56.40;;;;;;4954601;28;88246;-47
2023/08/13 01:29:54;;;;;;;;;;;22.00;56.40;;;;;;4952836;28;86941;-48
2023/08/13 01:32:21;;;;;;;;;;;21.90;56.40;;;;;;4951805;28;87686;-47
2023/08/13 01:34:47;;;;;;;;;;;21.90;56.40;;;;;;4952070;28;87909;-49
2023/08/13 01:37:13;;;;;;;;;;;21.90;56.50;;;;;;4954521;28;86359;-48
2023/08/13 01:39:39;;;;;;;;;;;21.90;56.50;;;;;;4952460;28;87030;-48
2023/08/13 01:42:06;;;;;;;;;;;21.90;56.40;;;;;;4956243;28;87939;-45
2023/08/13 01:44:32;;;;;;;;;;;21.90;56.50;;;;;;4952536;28;88160;-46
2023/08/13 01:46:57;;;;;;;;;;;21.90;56.50;;;;;;4957901;28;87942;-47
2023/08/13 01:49:23;;;;;;;;;;;21.90;56.50;;;;;;4952184;28;87162;-49
2023/08/13 01:51:48;;;;;;;;;;;21.90;56.60;;;;;;4954850;28;87438;-51
2023/08/13 01:54:14;;;;;;;;;;;21.90;56.60;;;;;;4952357;28;89261;-46
2023/08/13 01:56:39;;;;;;;;;;;21.80;56.60;;;;;;4953762;28;87136;-45
2023/08/13 01:59:05;;;;;;;;;;;21.80;56.60;;;;;;4956173;28;87050;-46
2023/08/13 02:01:30;;;;;;;;;;;21.80;56.60;;;;;;4952933;28;86497;-47
2023/08/13 02:03:56;;;;;;;;;;;21.80;56.50;;;;;;4949837;28;87171;-50
2023/08/13 02:06:22;;;;;;;;;;;21.80;56.60;;;;;;4955601;28;87579;-46
2023/08/13 02:08:47;;;;;;;;;;;21.80;56.60;;;;;;4955365;28;88188;-48
2023/08/13 02:11:13;;;;;;;;;;;21.80;56.60;;;;;;4954276;28;89082;-49
2023/08/13 02:13:38;;;;;;;;;;;21.80;56.60;;;;;;4953712;28;88281;-46
2023/08/13 02:16:04;;;;;;;;;;;21.80;56.70;;;;;;4954390;28;87207;-47
2023/08/13 02:18:30;;;;;;;;;;;21.80;56.60;;;;;;4952910;28;87464;-49
2023/08/13 02:20:55;;;;;;;;;;;21.80;56.60;;;;;;4951208;28;87280;-48
2023/08/13 02:23:21;;;;;;;;;;;21.80;56.60;;;;;;4953541;28;87121;-49
2023/08/13 02:25:46;;;;;;;;;;;21.80;56.60;;;;;;4955790;28;87579;-47
2023/08/13 02:28:12;;;;;;;;;;;21.80;56.70;;;;;;4953207;28;87276;-45
2023/08/13 02:30:38;;;;;;;;;;;21.70;56.60;;;;;;4957210;28;87211;-46
2023/08/13 02:33:03;;;;;;;;;;;21.70;56.60;;;;;;4953273;28;89003;-46
2023/08/13 02:35:29;;;;;;;;;;;21.70;56.70;;;;;;4949103;28;87481;-48
2023/08/13 02:37:54;;;;;;;;;;;21.70;56.70;;;;;;4953547;28;87617;-47
2023/08/13 02:40:20;;;;;;;;;;;21.70;56.70;;;;;;4952023;28;88107;-48
2023/08/13 02:42:45;;;;;;;;;;;21.70;56.70;;;;;;4948373;28;87139;-48
2023/08/13 02:45:11;;;;;;;;;;;21.70;56.70;;;;;;4954696;28;87651;-47
2023/08/13 02:47:36;;;;;;;;;;;21.70;56.70;;;;;;4952712;28;88218;-51
2023/08/13 02:50:02;;;;;;;;;;;21.70;56.70;;;;;;4954099;28;86450;-49
2023/08/13 02:52:27;;;;;;;;;;;21.60;56.70;;;;;;4956540;28;87120;-50
2023/08/13 02:54:53;;;;;;;;;;;21.60;56.70;;;;;;4950991;28;87859;-47
2023/08/13 02:57:18;;;;;;;;;;;21.60;56.70;;;;;;4952178;28;87890;-48
2023/08/13 02:59:44;;;;;;;;;;;21.60;56.70;;;;;;4955007;28;88209;-49
2023/08/13 03:02:09;;;;;;;;;;;21.60;56.80;;;;;;4951833;28;87213;-46
2023/08/13 03:04:35;;;;;;;;;;;21.60;56.70;;;;;;4952231;28;87616;-46
2023/08/13 03:07:00;;;;;;;;;;;21.60;56.70;;;;;;4950661;28;88244;-48
2023/08/13 03:09:26;;;;;;;;;;;21.60;56.70;;;;;;4951763;28;87196;-47
2023/08/13 03:11:51;;;;;;;;;;;21.60;56.70;;;;;;4953412;28;87613;-48
2023/08/13 03:14:17;;;;;;;;;;;21.50;56.70;;;;;;4955880;28;87450;-45
2023/08/13 03:16:42;;;;;;;;;;;21.50;56.70;;;;;;4954454;28;87133;-49
2023/08/13 03:19:08;;;;;;;;;;;21.60;56.70;;;;;;4951800;28;88092;-51
2023/08/13 03:21:33;;;;;;;;;;;21.50;56.70;;;;;;4951478;28;88162;-45
2023/08/13 03:23:59;;;;;;;;;;;21.50;56.70;;;;;;4951590;28;88513;-47
2023/08/13 03:26:24;;;;;;;;;;;21.50;56.70;;;;;;4953927;28;87308;-50
2023/08/13 03:28:50;;;;;;;;;;;21.50;56.70;;;;;;4952516;28;87151;-47
2023/08/13 03:31:15;;;;;;;;;;;21.50;56.70;;;;;;4948004;28;87383;-47
2023/08/13 03:33:41;;;;;;;;;;;21.50;56.80;;;;;;4949960;28;88200;-45
2023/08/13 03:36:06;;;;;;;;;;;21.50;56.70;;;;;;4947667;28;87623;-46
2023/08/13 03:38:32;;;;;;;;;;;21.50;56.80;;;;;;4951419;28;87306;-48
2023/08/13 03:40:58;;;;;;;;;;;21.40;56.70;;;;;;4950811;28;87227;-49
2023/08/13 03:43:23;;;;;;;;;;;21.40;56.70;;;;;;4950489;28;88434;-45
2023/08/13 03:45:49;;;;;;;;;;;21.40;56.70;;;;;;4949615;28;88768;-47
2023/08/13 03:48:14;;;;;;;;;;;21.40;56.70;;;;;;4953873;28;87135;-48
2023/08/13 03:50:43;;;;;;;;;;;21.40;56.80;;;;;;4947791;28;87513;-48
2023/08/13 03:53:09;;;;;;;;;;;21.40;56.70;;;;;;4943141;28;88006;-48
2023/08/13 03:55:35;;;;;;;;;;;21.40;56.80;;;;;;4952073;28;87118;-51
2023/08/13 03:58:01;;;;;;;;;;;21.30;56.70;;;;;;4950864;28;88110;-47
2023/08/13 04:00:26;;;;;;;;;;;21.30;56.80;;;;;;4943547;28;87134;-49
2023/08/13 04:02:52;;;;;;;;;;;21.40;56.90;;;;;;4948459;28;87665;-46
2023/08/13 04:05:17;;;;;;;;;;;21.30;56.80;;;;;;4951926;28;88063;-46
2023/08/13 04:07:43;;;;;;;;;;;21.30;56.80;;;;;;4951976;28;87170;-50
2023/08/13 04:10:08;;;;;;;;;;;21.30;56.80;;;;;;4942592;28;89132;-46
2023/08/13 04:12:34;;;;;;;;;;;21.30;56.80;;;;;;4939400;28;89839;-46
2023/08/13 04:15:01;;;;;;;;;;;21.30;56.80;;;;;;4953534;28;87163;-46
2023/08/13 04:17:27;;;;;;;;;;;21.30;56.80;;;;;;4954620;28;87221;-48
2023/08/13 04:19:52;;;;;;;;;;;21.30;56.90;;;;;;4947315;28;87531;-47
2023/08/13 04:22:18;;;;;;;;;;;21.30;56.90;;;;;;4942949;28;87507;-46
2023/08/13 04:24:48;;;;;;;;;;;21.30;56.90;;;;;;4947030;28;87981;-49
2023/08/13 04:27:14;;;;;;;;;;;21.20;56.80;;;;;;4954137;28;86879;-48
2023/08/13 04:29:39;;;;;;;;;;;21.20;56.80;;;;;;4946973;28;87727;-47
2023/08/13 04:32:05;;;;;;;;;;;21.30;56.90;;;;;;4945084;28;87305;-48
2023/08/13 04:34:30;;;;;;;;;;;21.20;56.80;;;;;;4949659;28;88181;-48
2023/08/13 04:36:56;;;;;;;;;;;21.20;56.80;;;;;;4952214;28;89188;-47
2023/08/13 04:39:21;;;;;;;;;;;21.20;56.80;;;;;;4944363;28;88269;-47
2023/08/13 04:41:47;;;;;;;;;;;21.20;56.80;;;;;;4943307;28;88627;-49
2023/08/13 04:44:12;;;;;;;;;;;21.20;56.90;;;;;;4955835;28;87111;-47
2023/08/13 04:46:38;;;;;;;;;;;21.20;56.90;;;;;;4953178;28;87153;-47
2023/08/13 04:49:03;;;;;;;;;;;21.20;56.80;;;;;;4945776;28;87919;-46
2023/08/13 04:51:29;;;;;;;;;;;21.20;56.90;;;;;;4941420;28;87515;-49
2023/08/13 04:53:54;;;;;;;;;;;21.20;56.80;;;;;;4954581;28;87162;-50
2023/08/13 04:56:20;;;;;;;;;;;21.20;56.90;;;;;;4952703;28;87418;-48
2023/08/13 04:58:45;;;;;;;;;;;21.10;56.80;;;;;;4951392;28;89947;-49
2023/08/13 05:01:11;;;;;;;;;;;21.20;56.80;;;;;;4953104;28;87430;-45
2023/08/13 05:03:37;;;;;;;;;;;21.20;56.90;;;;;;4955823;28;87522;-48
2023/08/13 05:06:02;;;;;;;;;;;21.10;56.80;;;;;;4954787;28;88909;-50
2023/08/13 05:08:28;;;;;;;;;;;21.10;56.90;;;;;;4941242;28;87402;-47
2023/08/13 05:10:54;;;;;;;;;;;21.10;57.50;;;;;;4950681;28;87987;-50
2023/08/13 05:13:19;;;;;;;;;;;21.10;56.90;;;;;;4954126;28;87153;-48
2023/08/13 05:15:45;;;;;;;;;;;21.10;56.90;;;;;;4947177;28;87467;-47
2023/08/13 05:18:10;;;;;;;;;;;21.10;56.90;;;;;;4947073;28;89534;-45
2023/08/13 05:20:36;;;;;;;;;;;21.10;56.90;;;;;;4953259;28;87227;-46
2023/08/13 05:23:01;;;;;;;;;;;21.10;56.90;;;;;;4956251;28;88413;-49
2023/08/13 05:25:28;;;;;;;;;;;21.10;56.80;;;;;;4948529;28;87278;-48
2023/08/13 05:27:54;;;;;;;;;;;21.10;56.90;;;;;;4950731;28;87551;-48
2023/08/13 05:30:20;;;;;;;;;;;21.10;56.90;;;;;;4952624;28;88044;-48
2023/08/13 05:32:46;;;;;;;;;;;21.10;57.00;;;;;;4956283;28;87161;-48
2023/08/13 05:35:12;;;;;;;;;;;21.10;57.00;;;;;;4945443;28;89081;-48
2023/08/13 05:37:38;;;;;;;;;;;21.10;57.00;;;;;;4942653;28;88305;-45
2023/08/13 05:40:04;;;;;;;;;;;21.10;57.00;;;;;;4951959;28;87396;-46
2023/08/13 05:42:29;;;;;;;;;;;21.10;57.00;;;;;;4957639;28;88700;-47
2023/08/13 05:44:55;;;;;;;;;;;21.10;57.00;;;;;;4944953;28;87755;-52
2023/08/13 05:47:21;;;;;;;;;;;21.10;57.00;;;;;;4949008;28;88140;-52
2023/08/13 05:49:47;;;;;;;;;;;21.00;57.60;;;;;;4950906;28;87822;-49
2023/08/13 05:52:12;;;;;;;;;;;21.10;57.00;;;;;;4955981;28;87192;-46
2023/08/13 05:54:38;;;;;;;;;;;21.10;57.00;;;;;;4940208;28;87176;-51
2023/08/13 05:57:04;;;;;;;;;;;21.10;57.00;;;;;;4948213;28;88129;-49
2023/08/13 05:59:29;;;;;;;;;;;21.10;57.00;;;;;;4955529;28;87182;-49
2023/08/13 06:01:55;;;;;;;;;;;21.10;57.10;;;;;;4950826;28;87228;-49
2023/08/13 06:04:21;;;;;;;;;;;21.10;57.10;;;;;;4947760;28;87131;-48
2023/08/13 06:06:46;;;;;;;;;;;21.10;57.20;;;;;;4947466;28;87175;-46
2023/08/13 06:09:12;;;;;;;;;;;21.10;57.10;;;;;;4953160;28;88307;-47
2023/08/13 06:11:37;;;;;;;;;;;21.10;57.10;;;;;;4950812;28;90005;-49
2023/08/13 06:14:03;;;;;;;;;;;21.10;57.10;;;;;;4950793;28;87379;-46
2023/08/13 06:16:28;;;;;;;;;;;21.10;57.10;;;;;;4950756;28;88732;-49
2023/08/13 06:18:54;;;;;;;;;;;21.10;57.10;;;;;;4953357;28;87080;-49
2023/08/13 06:21:19;;;;;;;;;;;21.10;57.10;;;;;;4953023;28;87565;-50
2023/08/13 06:23:45;;;;;;;;;;;21.10;57.20;;;;;;4946336;28;88675;-50
2023/08/13 06:26:11;;;;;;;;;;;21.10;57.20;;;;;;4946929;28;88972;-47
2023/08/13 06:28:37;;;;;;;;;;;21.10;57.20;;;;;;4955118;28;87208;-48
2023/08/13 06:31:03;;;;;;;;;;;21.10;57.10;;;;;;4951636;28;88059;-44
2023/08/13 06:33:29;;;;;;;;;;;21.10;57.10;;;;;;4948695;28;88778;-48
2023/08/13 06:35:55;;;;;;;;;;;21.10;57.80;;;;;;4947167;28;90083;-47
2023/08/13 06:38:20;;;;;;;;;;;21.10;57.20;;;;;;4954833;28;87163;-45
2023/08/13 06:40:46;;;;;;;;;;;21.10;57.10;;;;;;4951395;28;87706;-49
2023/08/13 06:43:12;;;;;;;;;;;21.10;57.20;;;;;;4944375;28;88162;-49
2023/08/13 06:45:37;;;;;;;;;;;21.10;57.30;;;;;;4950419;28;87206;-44
2023/08/13 06:48:04;;;;;;;;;;;21.10;57.30;;;;;;4955341;28;87597;-45
2023/08/13 06:50:30;;;;;;;;;;;21.10;57.20;;;;;;4944759;28;87804;-50
2023/08/13 06:52:55;;;;;;;;;;;21.10;57.20;;;;;;4949283;28;88190;-49
2023/08/13 06:55:21;;;;;;;;;;;21.10;57.20;;;;;;4952404;28;88891;-49
2023/08/13 06:57:46;;;;;;;;;;;21.10;57.30;;;;;;4952409;28;87449;-44
2023/08/13 07:00:12;;;;;;;;;;;21.10;57.30;;;;;;4946514;28;88071;-44
2023/08/13 07:02:38;;;;;;;;;;;21.10;57.30;;;;;;4943753;28;89011;-45
2023/08/13 07:05:04;;;;;;;;;;;21.10;57.30;;;;;;4954261;28;87199;-50
2023/08/13 07:07:30;;;;;;;;;;;21.10;57.30;;;;;;4951190;28;87526;-51
2023/08/13 07:09:55;;;;;;;;;;;21.10;57.30;;;;;;4956661;28;88127;-46
2023/08/13 07:12:21;;;;;;;;;;;21.10;57.30;;;;;;4945316;28;88816;-48
2023/08/13 07:14:47;;;;;;;;;;;21.10;57.30;;;;;;4954472;28;88190;-48
2023/08/13 07:17:12;;;;;;;;;;;21.10;57.30;;;;;;4954533;28;86391;-46
2023/08/13 07:19:38;;;;;;;;;;;21.10;57.30;;;;;;4941152;28;87117;-47
2023/08/13 07:22:03;;;;;;;;;;;21.10;57.30;;;;;;4942797;28;88225;-48
2023/08/13 07:24:29;;;;;;;;;;;21.10;57.30;;;;;;4952907;28;87929;-50
2023/08/13 07:26:54;;;;;;;;;;;21.10;57.30;;;;;;4946784;28;87779;-51
2023/08/13 07:29:20;;;;;;;;;;;21.10;57.30;;;;;;4942444;28;88028;-48
2023/08/13 07:31:45;;;;;;;;;;;21.10;57.30;;;;;;4948966;28;87155;-45
2023/08/13 07:34:11;;;;;;;;;;;21.10;57.30;;;;;;4954336;28;87784;-50
2023/08/13 07:36:36;;;;;;;;;;;21.20;57.40;;;;;;4951707;28;87123;-48
2023/08/13 07:39:02;;;;;;;;;;;21.10;57.40;;;;;;4941866;28;87601;-49
2023/08/13 07:41:28;;;;;;;;;;;21.10;57.30;;;;;;4952588;28;87193;-46
2023/08/13 07:43:54;;;;;;;;;;;21.10;57.40;;;;;;4952692;28;87107;-46
2023/08/13 07:46:20;;;;;;;;;;;21.20;57.40;;;;;;4942814;28;87536;-50
2023/08/13 07:48:45;;;;;;;;;;;21.10;57.40;;;;;;4944104;28;89850;-51
2023/08/13 07:51:12;;;;;;;;;;;21.20;57.60;;;;;;4953381;28;87038;-47
2023/08/13 07:53:38;;;;;;;;;;;21.10;57.40;;;;;;4951246;28;88111;-47
2023/08/13 07:56:04;;;;;;;;;;;21.20;57.50;;;;;;4943127;28;87722;-47
2023/08/13 07:58:29;;;;;;;;;;;21.20;57.50;;;;;;4944372;28;87525;-52
2023/08/13 08:00:55;;;;;;;;;;;21.20;57.50;;;;;;4952677;28;88242;-45
2023/08/13 08:03:22;;;;;;;;;;;21.20;57.50;;;;;;4951534;28;87725;-47
2023/08/13 08:05:49;;;;;;;;;;;21.20;57.50;;;;;;4945151;28;86633;-48
2023/08/13 08:08:15;;;;;;;;;;;21.10;57.60;;;;;;4940869;28;87807;-44
2023/08/13 08:10:40;;;;;;;;;;;21.10;57.60;;;;;;4951511;28;87350;-47
2023/08/13 08:13:06;;;;;;;;;;;21.10;57.80;;;;;;4952708;28;88119;-45
2023/08/13 08:15:31;;;;;;;;;;;21.10;57.80;;;;;;4944988;28;87922;-50
2023/08/13 08:17:57;;;;;;;;;;;21.10;58.00;;;;;;4942729;28;87712;-51
2023/08/13 08:20:22;;;;;;;;;;;21.10;58.00;;;;;;4952472;28;88214;-50
2023/08/13 08:22:48;;;;;;;;;;;21.10;57.90;;;;;;4949958;28;87169;-48
2023/08/13 08:25:13;;;;;;;;;;;21.10;58.00;;;;;;4947085;28;88140;-48
2023/08/13 08:27:39;;;;;;;;;;;21.20;57.80;;;;;;4939780;28;88133;-51
2023/08/13 08:30:05;;;;;;;;;;;21.20;58.00;;;;;;4954471;28;86525;-47
2023/08/13 08:32:31;;;;;;;;;;;21.20;57.80;;;;;;4944417;28;87370;-48
2023/08/13 08:34:56;;;;;;;;;;;21.20;57.80;;;;;;4948535;28;88088;-48
2023/08/13 08:37:22;;;;;;;;;;;21.20;57.80;;;;;;4951464;28;88721;-48
2023/08/13 08:39:47;;;;;;;;;;;21.20;57.70;;;;;;4953201;28;88356;-48
2023/08/13 08:42:13;;;;;;;;;;;21.30;57.60;;;;;;4940808;28;87683;-48
2023/08/13 08:44:41;;;;;;;;;;;21.20;57.60;;;;;;4949936;28;87421;-48
2023/08/13 08:47:07;;;;;;;;;;;21.30;57.60;;;;;;4946890;28;88238;-45
2023/08/13 08:49:34;;;;;;;;;;;21.30;57.60;;;;;;4950668;28;87151;-49
2023/08/13 08:51:59;;;;;;;;;;;21.30;57.40;;;;;;4945696;28;88632;-46
2023/08/13 08:54:25;;;;;;;;;;;21.30;57.40;;;;;;4940889;28;87407;-48
2023/08/13 08:56:50;;;;;;;;;;;21.30;57.30;;;;;;4953768;28;87403;-48
2023/08/13 08:59:16;;;;;;;;;;;21.30;57.30;;;;;;4951956;28;88021;-48
2023/08/13 09:01:41;;;;;;;;;;;21.30;57.20;;;;;;4948021;28;89751;-50
2023/08/13 09:04:07;;;;;;;;;;;21.30;57.20;;;;;;4945144;28;88327;-46
2023/08/13 09:06:51;;;;;;;;;;;21.30;57.10;;;;;;4946024;28;88160;-48
2023/08/13 09:09:17;;;;;;;;;;;21.30;57.10;;;;;;4946988;28;87140;-49
2023/08/13 09:11:42;;;;;;;;;;;21.30;57.00;;;;;;4940658;28;87535;-46
2023/08/13 09:14:08;;;;;;;;;;;21.30;57.00;;;;;;4943738;28;88510;-46
2023/08/13 09:16:38;;;;;;;;;;;21.30;57.00;;;;;;4952932;28;87153;-48
2023/08/13 09:19:03;;;;;;;;;;;21.30;57.00;;;;;;4950856;28;87525;-48
2023/08/13 09:21:29;;;;;;;;;;;21.40;57.00;;;;;;4942105;28;88387;-44
2023/08/13 09:23:55;;;;;;;;;;;21.40;56.90;;;;;;4947235;28;88221;-46
2023/08/13 09:26:24;;;;;;;;;;;21.40;56.90;;;;;;4955743;28;89122;-48
2023/08/13 09:28:50;;;;;;;;;;;21.40;56.90;;;;;;4948701;28;87234;-49
2023/08/13 09:31:16;;;;;;;;;;;21.40;56.70;;;;;;4945441;28;87416;-49
2023/08/13 09:33:42;;;;;;;;;;;21.50;56.70;;;;;;4949352;28;88120;-47
2023/08/13 09:36:08;;;;;;;;;;;21.40;56.60;;;;;;4954789;28;87301;-50
2023/08/13 09:38:33;;;;;;;;;;;21.40;56.60;;;;;;4949094;28;87888;-50
2023/08/13 09:40:59;;;;;;;;;;;21.50;56.70;;;;;;4946756;28;87350;-48
2023/08/13 09:43:26;;;;;;;;;;;21.50;56.50;;;;;;4955874;28;87891;-49
2023/08/13 09:45:52;;;;;;;;;;;21.50;56.30;;;;;;4952778;28;88022;-52
2023/08/13 09:48:21;;;;;;;;;;;21.60;56.40;;;;;;4948139;28;89073;-49
2023/08/13 09:50:48;;;;;;;;;;;21.60;56.40;;;;;;4949765;28;88080;-48
2023/08/13 09:53:14;;;;;;;;;;;21.60;56.30;;;;;;4953844;28;88067;-46
2023/08/13 09:55:43;;;;;;;;;;;21.60;56.30;;;;;;4953049;28;87228;-49
2023/08/13 09:58:11;;;;;;;;;;;21.70;56.40;;;;;;4945378;28;87987;-49
2023/08/13 10:00:37;;;;;;;;;;;21.60;56.20;;;;;;4951547;28;87974;-48
2023/08/13 10:03:03;;;;;;;;;;;21.70;56.30;;;;;;4953805;28;90839;-49
2023/08/13 10:05:32;;;;;;;;;;;21.70;56.10;;;;;;4947627;28;89695;-51
2023/08/13 10:07:58;;;;;;;;;;;21.70;56.10;;;;;;4941064;28;86921;-50
2023/08/13 10:10:24;;;;;;;;;;;21.70;56.00;;;;;;4949209;28;87189;-54
2023/08/13 10:12:50;;;;;;;;;;;21.70;56.00;;;;;;4955387;28;88179;-48
2023/08/13 10:15:16;;;;;;;;;;;21.80;56.00;;;;;;4945258;28;88957;-46
2023/08/13 10:17:45;;;;;;;;;;;21.80;55.90;;;;;;4942586;28;88577;-47
2023/08/13 10:20:11;;;;;;;;;;;21.80;56.00;;;;;;4949658;28;88260;-50
2023/08/13 10:22:37;;;;;;;;;;;21.80;56.00;;;;;;4956763;28;87130;-50
2023/08/13 10:25:06;;;;;;;;;;;21.80;56.00;;;;;;4951007;28;89778;-47
2023/08/13 10:27:34;;;;;;;;;;;21.90;56.00;;;;;;4948622;28;87862;-49
2023/08/13 10:30:04;;;;;;;;;;;21.80;55.90;;;;;;4950395;28;87511;-45
2023/08/13 10:32:29;;;;;;;;;;;21.90;55.90;;;;;;4954053;28;87409;-52
2023/08/13 10:34:55;;;;;;;;;;;21.90;55.80;;;;;;4947672;28;87902;-47
2023/08/13 10:37:21;;;;;;;;;;;21.90;55.80;;;;;;4944965;28;88964;-50
2023/08/13 10:40:03;;;;;;;;;;;22.00;55.90;;;;;;4949988;28;89051;-47
2023/08/13 10:42:33;;;;;;;;;;;22.00;55.90;;;;;;4949569;28;87078;-49
2023/08/13 10:45:01;;;;;;;;;;;22.00;55.70;;;;;;4944568;28;87315;-47
2023/08/13 10:47:37;;;;;;;;;;;22.00;55.70;;;;;;4947552;28;87958;-48
2023/08/13 10:50:04;;;;;;;;;;;22.00;55.70;;;;;;4953741;28;87746;-49
2023/08/13 10:52:30;;;;;;;;;;;22.10;55.70;;;;;;4953306;28;87248;-47
2023/08/13 10:54:57;;;;;;;;;;;22.10;55.80;;;;;;4948356;28;87197;-47
2023/08/13 10:57:26;;;;;;;;;;;22.10;55.90;;;;;;4949658;28;87610;-51
2023/08/13 10:59:52;;;;;;;;;;;22.10;55.70;;;;;;4951325;28;88299;-47
2023/08/13 11:02:21;;;;;;;;;;;22.10;55.90;;;;;;4952464;28;87877;-52
2023/08/13 11:04:47;;;;;;;;;;;22.10;55.90;;;;;;4943511;28;88893;-51
2023/08/13 11:07:13;;;;;;;;;;;22.10;55.90;;;;;;4952183;28;88015;-49
2023/08/13 11:09:39;;;;;;;;;;;22.10;56.00;;;;;;4952230;28;87103;-46
2023/08/13 11:12:05;;;;;;;;;;;22.10;56.10;;;;;;4945729;28;87234;-49
2023/08/13 11:14:30;;;;;;;;;;;22.10;56.00;;;;;;4946731;28;87205;-49
2023/08/13 11:16:56;;;;;;;;;;;22.20;56.00;;;;;;4950955;28;87499;-47
2023/08/13 11:19:22;;;;;;;;;;;22.20;55.90;;;;;;4952651;28;88266;-47
2023/08/13 11:21:48;;;;;;;;;;;22.20;55.80;;;;;;4947323;28;87291;-51
2023/08/13 11:24:14;;;;;;;;;;;22.20;55.80;;;;;;4944852;28;87997;-49
2023/08/13 11:26:39;;;;;;;;;;;22.20;55.80;;;;;;4951308;28;87454;-50
2023/08/13 11:29:05;;;;;;;;;;;22.30;55.90;;;;;;4944995;28;88327;-51
2023/08/13 11:31:34;;;;;;;;;;;22.30;55.80;;;;;;4940962;28;88072;-51
2023/08/13 11:33:59;;;;;;;;;;;22.30;55.80;;;;;;4942023;28;87297;-51
2023/08/13 11:36:25;;;;;;;;;;;22.40;55.80;;;;;;4953655;28;87399;-50
2023/08/13 11:38:51;;;;;;;;;;;22.40;55.80;;;;;;4951046;28;89765;-48
2023/08/13 11:41:16;;;;;;;;;;;22.40;55.80;;;;;;4945800;28;87186;-49
2023/08/13 11:43:42;;;;;;;;;;;22.40;55.70;;;;;;4946512;28;87568;-48
2023/08/13 11:46:08;;;;;;;;;;;22.50;55.90;;;;;;4951212;28;87391;-52
2023/08/13 11:48:37;;;;;;;;;;;22.40;55.70;;;;;;4955482;28;87241;-51
2023/08/13 11:51:13;;;;;;;;;;;22.50;55.90;;;;;;4949114;28;88037;-47
2023/08/13 11:53:46;;;;;;;;;;;22.50;55.80;;;;;;4945075;28;88187;-49
2023/08/13 11:56:12;;;;;;;;;;;22.50;55.70;;;;;;4946889;28;88590;-47
2023/08/13 11:58:38;;;;;;;;;;;22.50;55.70;;;;;;4945217;28;87180;-49
2023/08/13 12:01:04;;;;;;;;;;;22.50;55.70;;;;;;4946759;28;87291;-50
2023/08/13 12:03:35;;;;;;;;;;;22.60;55.70;;;;;;4948831;28;87713;-48
2023/08/13 12:06:01;;;;;;;;;;;22.60;55.70;;;;;;4950526;28;88147;-49
2023/08/13 12:08:28;;;;;;;;;;;22.60;55.60;;;;;;4940200;28;87335;-52
2023/08/13 12:10:53;;;;;;;;;;;22.60;56.30;;;;;;4947239;28;87501;-49
2023/08/13 12:13:19;;;;;;;;;;;22.60;55.70;;;;;;4950354;28;87084;-51
2023/08/13 12:15:44;;;;;;;;;;;22.70;55.70;;;;;;4950509;28;87546;-52
2023/08/13 12:18:10;;;;;;;;;;;22.70;55.60;;;;;;4932871;28;89215;-50
2023/08/13 12:20:35;;;;;;;;;;;22.70;55.60;;;;;;4950202;28;87315;-50
2023/08/13 12:23:01;;;;;;;;;;;22.70;55.70;;;;;;4954731;28;87496;-47
2023/08/13 12:25:28;;;;;;;;;;;22.70;55.50;;;;;;4948354;28;88632;-49
2023/08/13 12:27:54;;;;;;;;;;;22.80;55.60;;;;;;4944626;28;88149;-47
2023/08/13 12:30:20;;;;;;;;;;;22.80;55.60;;;;;;4949007;28;87142;-48
2023/08/13 12:32:46;;;;;;;;;;;22.80;55.60;;;;;;4953886;28;88034;-51
2023/08/13 12:35:12;;;;;;;;;;;22.80;55.40;;;;;;4950198;28;87371;-50
2023/08/13 12:37:38;;;;;;;;;;;22.80;55.60;;;;;;4941277;28;88306;-48
2023/08/13 12:40:04;;;;;;;;;;;22.80;55.60;;;;;;4950498;28;87061;-49
2023/08/13 12:42:29;;;;;;;;;;;22.80;55.50;;;;;;4950999;28;88133;-47
2023/08/13 12:44:55;;;;;;;;;;;22.90;55.50;;;;;;4947504;28;88418;-45
2023/08/13 12:47:20;;;;;;;;;;;22.90;55.50;;;;;;4959543;28;87175;-51
2023/08/13 12:49:46;;;;;;;;;;;22.90;55.50;;;;;;4949904;28;87463;-50
2023/08/13 12:52:12;;;;;;;;;;;22.90;55.40;;;;;;4950894;28;88196;-49
2023/08/13 12:54:37;;;;;;;;;;;22.90;55.30;;;;;;4955236;28;87099;-51
2023/08/13 12:57:03;;;;;;;;;;;23.00;55.10;;;;;;4944390;28;90277;-50
2023/08/13 12:59:28;;;;;;;;;;;23.00;55.30;;;;;;4951045;28;86446;-49
2023/08/13 13:01:54;;;;;;;;;;;23.00;55.10;;;;;;4954822;28;87332;-49
2023/08/13 13:04:20;;;;;;;;;;;23.10;55.10;;;;;;4950501;28;88142;-49
2023/08/13 13:06:45;;;;;;;;;;;23.00;55.00;;;;;;4944359;28;89954;-49
2023/08/13 13:09:11;;;;;;;;;;;23.10;55.50;;;;;;4956564;28;87956;-52
2023/08/13 13:11:36;;;;;;;;;;;23.10;55.00;;;;;;4953792;28;88001;-46
2023/08/13 13:14:02;;;;;;;;;;;23.10;55.10;;;;;;4949688;28;87908;-48
2023/08/13 13:16:28;;;;;;;;;;;23.10;55.10;;;;;;4949313;28;87953;-47
2023/08/13 13:18:53;;;;;;;;;;;23.10;55.00;;;;;;4954613;28;87139;-50
2023/08/13 13:21:19;;;;;;;;;;;23.20;55.00;;;;;;4948607;28;87595;-51
2023/08/13 13:23:44;;;;;;;;;;;23.20;55.10;;;;;;4944581;28;86926;-49
2023/08/13 13:26:10;;;;;;;;;;;23.20;55.00;;;;;;4947563;28;87288;-47
2023/08/13 13:28:37;;;;;;;;;;;23.20;55.00;;;;;;4955977;28;87827;-48
2023/08/13 13:31:03;;;;;;;;;;;23.20;54.90;;;;;;4949078;28;88384;-51
2023/08/13 13:33:30;;;;;;;;;;;23.20;54.90;;;;;;4951527;28;87351;-48
2023/08/13 13:35:56;;;;;;;;;;;23.30;54.90;;;;;;4951132;28;87105;-49
2023/08/13 13:38:21;;;;;;;;;;;23.30;54.80;;;;;;4956402;28;87982;-48
2023/08/13 13:40:47;;;;;;;;;;;23.30;54.80;;;;;;4950871;28;87392;-49
2023/08/13 13:43:12;;;;;;;;;;;23.30;54.80;;;;;;4939142;28;87991;-47
2023/08/13 13:45:38;;;;;;;;;;;23.30;54.80;;;;;;4952623;28;87173;-51
2023/08/13 13:48:04;;;;;;;;;;;23.30;54.70;;;;;;4953151;28;88276;-50
2023/08/13 13:50:30;;;;;;;;;;;23.40;54.70;;;;;;4940289;28;88110;-46
2023/08/13 13:52:55;;;;;;;;;;;23.30;54.50;;;;;;4949459;28;87002;-50
2023/08/13 13:55:21;;;;;;;;;;;23.30;54.50;;;;;;4954392;28;88830;-50
2023/08/13 13:57:47;;;;;;;;;;;23.40;54.50;;;;;;4957510;28;88346;-47
2023/08/13 14:00:12;;;;;;;;;;;23.40;55.10;;;;;;4949511;28;87493;-47
2023/08/13 14:02:39;;;;;;;;;;;23.40;54.50;;;;;;4943711;28;88649;-53
2023/08/13 14:05:04;;;;;;;;;;;23.40;54.50;;;;;;4956088;28;87171;-50
2023/08/13 14:07:30;;;;;;;;;;;23.40;54.50;;;;;;4954612;28;87591;-50
2023/08/13 14:09:55;;;;;;;;;;;23.40;54.40;;;;;;4944628;28;87924;-49